»·PEaware :: AWE2180 KABQ-KPHX

AWE2180 :: KABQ-KPHX

FLIGHT INFORMATION

Flight Status: Arrived
Operator:
US Airways
More flights by this operator :: More flights under this callsign
Pilot: Jim M. (18055)
Aircraft: BOEING 737-200
(B732)
More flights by this aircraft type
Origin: KABQ Albuquerque Intl Sunport
United States
Destination: KPHX Phoenix Sky Harbor Intl
United States
More flights between these airports :: More routes between these airports
Route: LARGO3 ZUN BUNTR3
File this flight plan on PilotEdge
Remarks:
Altitude:
(Current/Filed)
28,000ft
Speed:
(Current/Filed)
450kts
Departed: 14-Jan-19 10:04 AM
Arrived: 14-Jan-19 11:08 AM
Distance/Time
Traveled:
284nm/1:03
Distance/Time
To Go:
Arrived

Flight Plot

Page will automatically refresh every two minutes.

Flight plan parsing failed; only flown route is shown


Map Options




Map Legend


Flown Route
Filed Route
Departure Airport
Arrival Airport
Navaid (VOR, NDB)
Fix

Horizontal Profiles

Position Reports

Time Latitude Longitude Heading Altitude Ground
Speed
14-Jan-19 09:34 35.047890 -106.618145 179 5309ft 0kts
14-Jan-19 09:35 35.047890 -106.618145 179 5309ft 0kts
14-Jan-19 09:37 35.047890 -106.618145 179 5309ft 0kts
14-Jan-19 09:37 35.047890 -106.618145 179 5309ft 0kts
14-Jan-19 09:38 35.047890 -106.618145 179 5309ft 0kts
14-Jan-19 09:40 35.047890 -106.618145 179 5309ft 0kts
14-Jan-19 09:40 35.047890 -106.618145 179 5309ft 0kts
14-Jan-19 09:41 35.047890 -106.618145 179 5309ft 0kts
14-Jan-19 09:42 35.047890 -106.618145 179 5309ft 0kts
14-Jan-19 09:43 35.047890 -106.618145 179 5309ft 0kts
14-Jan-19 09:44 35.047890 -106.618145 179 5309ft 0kts
14-Jan-19 09:45 35.047890 -106.618145 179 5309ft 0kts
14-Jan-19 09:46 35.047890 -106.618145 179 5309ft 0kts
14-Jan-19 09:47 35.047890 -106.618145 179 5309ft 0kts
14-Jan-19 09:48 35.047890 -106.618145 179 5309ft 0kts
14-Jan-19 09:49 35.047890 -106.618145 179 5309ft 0kts
14-Jan-19 09:50 35.047890 -106.618145 179 5309ft 0kts
14-Jan-19 09:51 35.047890 -106.618145 179 5309ft 0kts
14-Jan-19 09:52 35.047951 -106.618152 150 5309ft 1kts
14-Jan-19 09:53 35.048409 -106.618029 260 5308ft 2kts
14-Jan-19 09:54 35.048412 -106.617762 272 5308ft 0kts
14-Jan-19 09:55 35.048412 -106.617762 272 5308ft 0kts
14-Jan-19 09:56 35.048412 -106.617762 272 5308ft 0kts
14-Jan-19 09:57 35.048424 -106.618076 272 5307ft 6kts
14-Jan-19 09:58 35.047954 -106.619529 195 5306ft 0kts
14-Jan-19 09:59 35.047025 -106.619576 178 5308ft 10kts
14-Jan-19 10:00 35.045516 -106.621035 258 5304ft 4kts
14-Jan-19 10:01 35.045498 -106.621100 248 5304ft 0kts
14-Jan-19 10:02 35.044356 -106.620182 90 5309ft 31kts
14-Jan-19 10:03 35.043995 -106.573822 76 6287ft 179kts
14-Jan-19 10:04 35.085172 -106.564172 311 8087ft 210kts
14-Jan-19 10:05 35.113127 -106.624057 298 10784ft 214kts
14-Jan-19 10:06 35.152640 -106.692741 304 12610ft 263kts
14-Jan-19 10:07 35.193418 -106.778482 298 13632ft 330kts
14-Jan-19 10:08 35.240223 -106.877541 298 16016ft 340kts
14-Jan-19 10:09 35.290904 -106.978127 298 17749ft 354kts
14-Jan-19 10:10 35.305853 -107.090105 252 19232ft 346kts
14-Jan-19 10:11 35.278144 -107.203483 251 20714ft 351kts
14-Jan-19 10:12 35.250190 -107.318666 251 22024ft 355kts
14-Jan-19 10:13 35.222173 -107.434886 252 23149ft 358kts
14-Jan-19 10:14 35.194758 -107.549927 252 24479ft 353kts
14-Jan-19 10:15 35.167282 -107.665913 251 25374ft 356kts
14-Jan-19 10:16 35.140696 -107.783000 255 26195ft 360kts
14-Jan-19 10:17 35.122870 -107.903758 258 26919ft 363kts
14-Jan-19 10:18 35.107581 -108.026260 258 27564ft 365kts
14-Jan-19 10:19 35.092678 -108.149392 258 28105ft 368kts
14-Jan-19 10:20 35.077579 -108.274211 258 28378ft 375kts
14-Jan-19 10:21 35.061732 -108.403952 258 28356ft 387kts
14-Jan-19 10:22 35.045479 -108.535986 258 28333ft 386kts
14-Jan-19 10:23 35.029707 -108.662742 256 28357ft 379kts
14-Jan-19 10:24 35.013146 -108.791236 257 28359ft 379kts
14-Jan-19 10:25 34.996874 -108.919566 257 28349ft 379kts
14-Jan-19 10:26 34.981012 -109.048310 257 28328ft 380kts
14-Jan-19 10:27 34.965316 -109.178323 246 28285ft 383kts
14-Jan-19 10:28 34.915950 -109.294754 241 28303ft 388kts
14-Jan-19 10:29 34.870196 -109.416706 241 28313ft 396kts
14-Jan-19 10:30 34.823728 -109.541968 242 28311ft 404kts
14-Jan-19 10:31 34.776731 -109.668993 241 28316ft 410kts
14-Jan-19 10:32 34.728547 -109.798114 241 28321ft 413kts
14-Jan-19 10:33 34.680925 -109.925949 241 28326ft 407kts
14-Jan-19 10:34 34.634021 -110.051431 241 28325ft 399kts
14-Jan-19 10:35 34.587898 -110.174341 241 28325ft 392kts
14-Jan-19 10:36 34.542334 -110.295307 241 28324ft 388kts
14-Jan-19 10:37 34.497128 -110.415006 241 28322ft 385kts
14-Jan-19 10:38 34.453389 -110.532866 241 27645ft 363kts
14-Jan-19 10:39 34.412357 -110.644973 242 24929ft 358kts
14-Jan-19 10:40 34.375160 -110.753092 239 24307ft 327kts
14-Jan-19 10:41 34.320083 -110.846014 227 24302ft 352kts
14-Jan-19 10:42 34.257690 -110.931261 224 22516ft 343kts
14-Jan-19 10:43 34.191448 -111.017049 223 19752ft 343kts
14-Jan-19 10:44 34.125683 -111.101095 223 17266ft 339kts
14-Jan-19 10:45 34.060436 -111.184075 223 15353ft 334kts
14-Jan-19 10:46 33.996136 -111.265645 224 14073ft 325kts
14-Jan-19 10:47 33.937134 -111.340400 223 14067ft 285kts
14-Jan-19 10:48 33.880883 -111.411118 223 14074ft 294kts
14-Jan-19 10:49 33.824916 -111.484706 234 14056ft 298kts
14-Jan-19 10:50 33.782029 -111.570335 236 13440ft 292kts
14-Jan-19 10:51 33.739526 -111.654448 235 11198ft 288kts
14-Jan-19 10:52 33.697741 -111.736147 235 10003ft 263kts
14-Jan-19 10:53 33.661591 -111.807373 235 9311ft 247kts
14-Jan-19 10:54 33.624678 -111.878066 235 8200ft 248kts
14-Jan-19 10:55 33.587461 -111.948328 238 8024ft 250kts
14-Jan-19 10:56 33.569139 -112.027794 260 7053ft 246kts
14-Jan-19 10:57 33.558861 -112.109138 260 6015ft 242kts
14-Jan-19 10:58 33.548602 -112.188066 261 5655ft 236kts
14-Jan-19 10:59 33.537649 -112.267014 256 4483ft 235kts
14-Jan-19 11:00 33.486036 -112.295832 181 4032ft 198kts
14-Jan-19 11:01 33.445955 -112.267518 121 3433ft 180kts
14-Jan-19 11:02 33.440228 -112.213892 88 3005ft 155kts
14-Jan-19 11:03 33.440768 -112.158908 89 3008ft 169kts
14-Jan-19 11:04 33.440841 -112.109612 90 2461ft 130kts
14-Jan-19 11:05 33.440827 -112.063782 90 1734ft 133kts
14-Jan-19 11:06 33.440851 -112.018834 91 1122ft 127kts
14-Jan-19 11:07 33.440059 -112.007158 165 1131ft 10kts
14-Jan-19 11:08 33.438920 -112.005677 98 1131ft 15kts
14-Jan-19 11:09 33.439000 -112.000458 88 1132ft 15kts
14-Jan-19 11:10 33.437903 -111.997697 107 1133ft 5kts
14-Jan-19 11:11 33.437842 -111.997407 103 1133ft 0kts

Navigation Log

Ident Type
Flight plan parsing failed, navigation log unavailable